sensor_id;sensor_type;location;lat;lon;timestamp;noise_LAeq;noise_LA_min;noise_LA_max;noise_LA01;noise_LA95
74470;Laerm;62918;55.706;37.816;2023-03-17T00:00:07;57.44;47.89;62.23;;
74470;Laerm;62918;55.706;37.816;2023-03-17T00:00:41;57.19;50.77;63.64;;
74470;Laerm;62918;55.706;37.816;2023-03-17T00:01:13;51.71;47.74;60.32;;
74470;Laerm;62918;55.706;37.816;2023-03-17T00:01:46;49.46;46.74;53.74;;
74470;Laerm;62918;55.706;37.816;2023-03-17T00:02:23;57.42;47.70;65.43;;
74470;Laerm;62918;55.706;37.816;2023-03-17T00:02:54;52.20;48.03;61.80;;
74470;Laerm;62918;55.706;37.816;2023-03-17T00:03:40;59.76;48.84;72.96;;
74470;Laerm;62918;55.706;37.816;2023-03-17T00:04:11;57.44;50.17;61.47;;
74470;Laerm;62918;55.706;37.816;2023-03-17T00:04:42;62.90;48.98;75.61;;
74470;Laerm;62918;55.706;37.816;2023-03-17T00:05:19;65.14;52.84;74.42;;
74470;Laerm;62918;55.706;37.816;2023-03-17T00:05:52;62.53;57.49;66.75;;
74470;Laerm;62918;55.706;37.816;2023-03-17T00:06:28;53.95;48.18;60.36;;
74470;Laerm;62918;55.706;37.816;2023-03-17T00:06:59;58.95;49.08;65.29;;
74470;Laerm;62918;55.706;37.816;2023-03-17T00:07:29;50.34;47.53;53.21;;
74470;Laerm;62918;55.706;37.816;2023-03-17T00:08:06;54.56;48.96;58.82;;
74470;Laerm;62918;55.706;37.816;2023-03-17T00:08:39;58.72;53.88;64.01;;
74470;Laerm;62918;55.706;37.816;2023-03-17T00:09:14;53.78;49.31;59.36;;
74470;Laerm;62918;55.706;37.816;2023-03-17T00:09:46;55.67;51.11;60.78;;
74470;Laerm;62918;55.706;37.816;2023-03-17T00:10:20;54.81;49.28;61.48;;
74470;Laerm;62918;55.706;37.816;2023-03-17T00:10:52;57.03;48.65;62.67;;
74470;Laerm;62918;55.706;37.816;2023-03-17T00:11:24;51.70;47.61;57.21;;
74470;Laerm;62918;55.706;37.816;2023-03-17T00:11:55;53.45;48.53;58.13;;
74470;Laerm;62918;55.706;37.816;2023-03-17T00:12:26;49.71;46.51;52.63;;
74470;Laerm;62918;55.706;37.816;2023-03-17T00:12:56;58.11;48.80;63.24;;
74470;Laerm;62918;55.706;37.816;2023-03-17T00:13:28;54.00;48.94;61.89;;
74470;Laerm;62918;55.706;37.816;2023-03-17T00:13:59;52.88;48.63;59.67;;
74470;Laerm;62918;55.706;37.816;2023-03-17T00:14:30;53.62;47.90;58.39;;
74470;Laerm;62918;55.706;37.816;2023-03-17T00:15:01;57.52;51.55;62.49;;
74470;Laerm;62918;55.706;37.816;2023-03-17T00:15:32;58.57;53.37;65.32;;
74470;Laerm;62918;55.706;37.816;2023-03-17T00:16:03;58.73;50.91;64.14;;
74470;Laerm;62918;55.706;37.816;2023-03-17T00:16:41;49.93;47.38;52.56;;
74470;Laerm;62918;55.706;37.816;2023-03-17T00:17:12;62.47;48.88;70.60;;
74470;Laerm;62918;55.706;37.816;2023-03-17T00:17:44;56.27;52.00;65.49;;
74470;Laerm;62918;55.706;37.816;2023-03-17T00:18:17;56.95;49.57;63.80;;
74470;Laerm;62918;55.706;37.816;2023-03-17T00:18:49;58.66;55.05;63.41;;
74470;Laerm;62918;55.706;37.816;2023-03-17T00:19:28;57.12;49.33;66.14;;
74470;Laerm;62918;55.706;37.816;2023-03-17T00:20:00;57.27;48.20;71.99;;
74470;Laerm;62918;55.706;37.816;2023-03-17T00:20:31;49.98;46.70;53.33;;
74470;Laerm;62918;55.706;37.816;2023-03-17T00:21:02;58.64;49.35;66.15;;
74470;Laerm;62918;55.706;37.816;2023-03-17T00:21:33;57.22;50.50;65.16;;
74470;Laerm;62918;55.706;37.816;2023-03-17T00:22:05;60.43;49.91;67.73;;
74470;Laerm;62918;55.706;37.816;2023-03-17T00:22:43;50.93;48.13;54.01;;
74470;Laerm;62918;55.706;37.816;2023-03-17T00:23:17;53.22;47.71;79.44;;
74470;Laerm;62918;55.706;37.816;2023-03-17T00:23:50;54.90;48.47;61.87;;
74470;Laerm;62918;55.706;37.816;2023-03-17T00:24:24;62.83;51.24;70.84;;
74470;Laerm;62918;55.706;37.816;2023-03-17T00:24:55;59.99;49.92;66.32;;
74470;Laerm;62918;55.706;37.816;2023-03-17T00:25:30;57.55;48.56;67.39;;
74470;Laerm;62918;55.706;37.816;2023-03-17T00:26:02;60.46;52.21;67.05;;
74470;Laerm;62918;55.706;37.816;2023-03-17T00:26:32;60.77;48.04;67.20;;
74470;Laerm;62918;55.706;37.816;2023-03-17T00:27:09;55.21;47.19;59.67;;
74470;Laerm;62918;55.706;37.816;2023-03-17T00:27:40;50.05;46.96;54.94;;
74470;Laerm;62918;55.706;37.816;2023-03-17T00:28:21;56.26;47.22;65.18;;
74470;Laerm;62918;55.706;37.816;2023-03-17T00:28:52;53.46;48.47;64.47;;
74470;Laerm;62918;55.706;37.816;2023-03-17T00:29:23;61.24;51.44;67.15;;
74470;Laerm;62918;55.706;37.816;2023-03-17T00:29:54;58.10;48.28;64.99;;
74470;Laerm;62918;55.706;37.816;2023-03-17T00:30:25;59.76;48.67;67.02;;
74470;Laerm;62918;55.706;37.816;2023-03-17T00:30:58;59.87;47.40;66.86;;
74470;Laerm;62918;55.706;37.816;2023-03-17T00:31:30;49.26;46.28;52.74;;
74470;Laerm;62918;55.706;37.816;2023-03-17T00:32:01;53.34;48.04;57.19;;
74470;Laerm;62918;55.706;37.816;2023-03-17T00:32:33;53.38;48.45;61.51;;
74470;Laerm;62918;55.706;37.816;2023-03-17T00:33:03;52.68;47.11;60.16;;
74470;Laerm;62918;55.706;37.816;2023-03-17T00:33:35;49.84;46.36;58.13;;
74470;Laerm;62918;55.706;37.816;2023-03-17T00:34:10;52.65;46.57;63.05;;
74470;Laerm;62918;55.706;37.816;2023-03-17T00:34:41;53.34;48.42;60.19;;
74470;Laerm;62918;55.706;37.816;2023-03-17T00:35:17;56.88;46.89;64.54;;
74470;Laerm;62918;55.706;37.816;2023-03-17T00:35:48;56.82;48.07;63.03;;
74470;Laerm;62918;55.706;37.816;2023-03-17T00:36:25;59.76;48.93;65.03;;
74470;Laerm;62918;55.706;37.816;2023-03-17T00:36:57;59.87;53.49;66.30;;
74470;Laerm;62918;55.706;37.816;2023-03-17T00:37:27;54.34;48.42;65.60;;
74470;Laerm;62918;55.706;37.816;2023-03-17T00:37:58;53.55;47.67;60.09;;
74470;Laerm;62918;55.706;37.816;2023-03-17T00:38:29;54.42;48.58;62.97;;
74470;Laerm;62918;55.706;37.816;2023-03-17T00:38:59;60.03;49.71;70.24;;
74470;Laerm;62918;55.706;37.816;2023-03-17T00:39:30;60.72;51.13;69.36;;
74470;Laerm;62918;55.706;37.816;2023-03-17T00:40:01;58.06;48.45;66.11;;
74470;Laerm;62918;55.706;37.816;2023-03-17T00:40:32;50.79;47.33;54.54;;
74470;Laerm;62918;55.706;37.816;2023-03-17T00:41:03;58.57;49.10;64.73;;
74470;Laerm;62918;55.706;37.816;2023-03-17T00:41:33;52.65;48.09;58.45;;
74470;Laerm;62918;55.706;37.816;2023-03-17T00:42:07;52.27;48.41;57.55;;
74470;Laerm;62918;55.706;37.816;2023-03-17T00:42:37;52.23;47.20;57.24;;
74470;Laerm;62918;55.706;37.816;2023-03-17T00:43:08;55.08;48.90;63.34;;
74470;Laerm;62918;55.706;37.816;2023-03-17T00:43:39;55.32;48.82;62.96;;
74470;Laerm;62918;55.706;37.816;2023-03-17T00:44:11;52.65;47.56;68.46;;
74470;Laerm;62918;55.706;37.816;2023-03-17T00:44:41;56.42;50.51;61.17;;
74470;Laerm;62918;55.706;37.816;2023-03-17T00:45:12;55.98;50.96;59.54;;
74470;Laerm;62918;55.706;37.816;2023-03-17T00:45:43;58.60;51.10;63.56;;
74470;Laerm;62918;55.706;37.816;2023-03-17T00:46:28;54.98;49.90;61.70;;
74470;Laerm;62918;55.706;37.816;2023-03-17T00:47:04;57.64;50.23;65.52;;
74470;Laerm;62918;55.706;37.816;2023-03-17T00:47:35;51.49;48.63;54.99;;
74470;Laerm;62918;55.706;37.816;2023-03-17T00:48:16;57.82;50.15;65.37;;
74470;Laerm;62918;55.706;37.816;2023-03-17T00:48:47;56.14;48.52;62.27;;
74470;Laerm;62918;55.706;37.816;2023-03-17T00:49:20;51.12;48.28;56.00;;
74470;Laerm;62918;55.706;37.816;2023-03-17T00:49:51;55.27;49.83;64.87;;
74470;Laerm;62918;55.706;37.816;2023-03-17T00:50:24;59.25;50.36;65.50;;
74470;Laerm;62918;55.706;37.816;2023-03-17T00:50:56;51.32;48.46;54.17;;
74470;Laerm;62918;55.706;37.816;2023-03-17T00:51:26;51.51;48.73;57.69;;
74470;Laerm;62918;55.706;37.816;2023-03-17T00:51:57;58.88;50.00;66.83;;
74470;Laerm;62918;55.706;37.816;2023-03-17T00:52:27;60.90;51.58;67.03;;
74470;Laerm;62918;55.706;37.816;2023-03-17T00:52:58;53.72;49.43;59.51;;
74470;Laerm;62918;55.706;37.816;2023-03-17T00:53:29;58.17;52.26;64.50;;
74470;Laerm;62918;55.706;37.816;2023-03-17T00:53:59;59.27;49.14;68.33;;
74470;Laerm;62918;55.706;37.816;2023-03-17T00:54:30;55.17;48.56;61.14;;
74470;Laerm;62918;55.706;37.816;2023-03-17T00:55:01;56.89;47.89;62.24;;
74470;Laerm;62918;55.706;37.816;2023-03-17T00:55:31;53.90;46.82;62.49;;
74470;Laerm;62918;55.706;37.816;2023-03-17T00:56:03;56.55;47.09;64.01;;
74470;Laerm;62918;55.706;37.816;2023-03-17T00:56:36;50.64;47.26;55.59;;
74470;Laerm;62918;55.706;37.816;2023-03-17T00:57:08;60.72;48.34;68.15;;
74470;Laerm;62918;55.706;37.816;2023-03-17T00:57:40;55.37;49.85;61.08;;
74470;Laerm;62918;55.706;37.816;2023-03-17T00:58:22;54.05;48.91;59.68;;
74470;Laerm;62918;55.706;37.816;2023-03-17T00:58:54;54.93;48.78;61.98;;
74470;Laerm;62918;55.706;37.816;2023-03-17T00:59:36;65.46;51.88;74.10;;
74470;Laerm;62918;55.706;37.816;2023-03-17T01:00:19;51.40;48.11;55.20;;
74470;Laerm;62918;55.706;37.816;2023-03-17T01:00:50;53.02;48.45;59.56;;
74470;Laerm;62918;55.706;37.816;2023-03-17T01:01:21;54.47;50.75;59.71;;
74470;Laerm;62918;55.706;37.816;2023-03-17T01:01:52;57.21;52.51;69.29;;
74470;Laerm;62918;55.706;37.816;2023-03-17T01:02:22;58.12;48.63;68.04;;
74470;Laerm;62918;55.706;37.816;2023-03-17T01:02:54;52.71;49.32;57.89;;
74470;Laerm;62918;55.706;37.816;2023-03-17T01:03:26;51.66;49.19;54.16;;
74470;Laerm;62918;55.706;37.816;2023-03-17T01:03:57;52.15;48.57;58.26;;
74470;Laerm;62918;55.706;37.816;2023-03-17T01:04:28;56.16;48.91;62.45;;
74470;Laerm;62918;55.706;37.816;2023-03-17T01:04:58;51.84;49.14;55.51;;
74470;Laerm;62918;55.706;37.816;2023-03-17T01:05:30;56.09;48.70;63.62;;
74470;Laerm;62918;55.706;37.816;2023-03-17T01:06:01;61.46;55.12;69.29;;
74470;Laerm;62918;55.706;37.816;2023-03-17T01:06:32;56.23;50.20;61.04;;
74470;Laerm;62918;55.706;37.816;2023-03-17T01:07:03;50.36;47.30;53.05;;
74470;Laerm;62918;55.706;37.816;2023-03-17T01:07:34;50.73;47.97;55.79;;
74470;Laerm;62918;55.706;37.816;2023-03-17T01:08:06;52.96;49.24;57.99;;
74470;Laerm;62918;55.706;37.816;2023-03-17T01:08:38;59.35;53.07;64.09;;
74470;Laerm;62918;55.706;37.816;2023-03-17T01:09:13;55.20;48.67;63.42;;
74470;Laerm;62918;55.706;37.816;2023-03-17T01:09:44;52.30;48.42;57.61;;
74470;Laerm;62918;55.706;37.816;2023-03-17T01:10:18;53.06;49.36;65.66;;
74470;Laerm;62918;55.706;37.816;2023-03-17T01:10:49;51.46;48.10;55.51;;
74470;Laerm;62918;55.706;37.816;2023-03-17T01:11:20;56.23;49.31;63.05;;
74470;Laerm;62918;55.706;37.816;2023-03-17T01:11:50;55.75;49.03;65.86;;
74470;Laerm;62918;55.706;37.816;2023-03-17T01:12:21;55.75;48.95;61.75;;
74470;Laerm;62918;55.706;37.816;2023-03-17T01:12:53;60.50;53.63;67.31;;
74470;Laerm;62918;55.706;37.816;2023-03-17T01:13:24;57.38;50.20;65.72;;
74470;Laerm;62918;55.706;37.816;2023-03-17T01:13:55;52.68;49.88;55.55;;
74470;Laerm;62918;55.706;37.816;2023-03-17T01:14:26;54.57;49.39;58.31;;
74470;Laerm;62918;55.706;37.816;2023-03-17T01:14:57;56.21;50.98;61.28;;
74470;Laerm;62918;55.706;37.816;2023-03-17T01:15:29;54.64;49.00;59.81;;
74470;Laerm;62918;55.706;37.816;2023-03-17T01:16:00;54.82;49.99;60.31;;
74470;Laerm;62918;55.706;37.816;2023-03-17T01:16:31;51.36;47.97;54.79;;
74470;Laerm;62918;55.706;37.816;2023-03-17T01:17:02;52.96;48.80;57.92;;
74470;Laerm;62918;55.706;37.816;2023-03-17T01:17:33;55.06;51.81;59.36;;
74470;Laerm;62918;55.706;37.816;2023-03-17T01:18:03;53.58;49.60;57.18;;
74470;Laerm;62918;55.706;37.816;2023-03-17T01:18:34;52.32;48.79;56.24;;
74470;Laerm;62918;55.706;37.816;2023-03-17T01:19:05;55.44;51.73;59.82;;
74470;Laerm;62918;55.706;37.816;2023-03-17T01:19:35;55.17;49.01;60.35;;
74470;Laerm;62918;55.706;37.816;2023-03-17T01:20:10;51.57;48.20;54.02;;
74470;Laerm;62918;55.706;37.816;2023-03-17T01:20:45;51.45;48.30;58.64;;
74470;Laerm;62918;55.706;37.816;2023-03-17T01:21:16;51.11;48.64;55.95;;
74470;Laerm;62918;55.706;37.816;2023-03-17T01:21:46;52.44;47.98;60.79;;
74470;Laerm;62918;55.706;37.816;2023-03-17T01:22:17;55.36;48.39;60.59;;
74470;Laerm;62918;55.706;37.816;2023-03-17T01:22:48;52.55;47.11;60.06;;
74470;Laerm;62918;55.706;37.816;2023-03-17T01:23:19;51.14;48.17;56.01;;
74470;Laerm;62918;55.706;37.816;2023-03-17T01:23:51;53.58;48.77;58.83;;
74470;Laerm;62918;55.706;37.816;2023-03-17T01:24:22;52.74;49.11;58.41;;
74470;Laerm;62918;55.706;37.816;2023-03-17T01:24:53;51.52;48.10;54.35;;
74470;Laerm;62918;55.706;37.816;2023-03-17T01:25:24;52.31;48.61;55.75;;
74470;Laerm;62918;55.706;37.816;2023-03-17T01:25:54;57.87;49.90;63.96;;
74470;Laerm;62918;55.706;37.816;2023-03-17T01:26:25;54.35;47.82;61.33;;
74470;Laerm;62918;55.706;37.816;2023-03-17T01:26:56;53.76;48.47;59.99;;
74470;Laerm;62918;55.706;37.816;2023-03-17T01:27:26;55.45;49.50;65.65;;
74470;Laerm;62918;55.706;37.816;2023-03-17T01:27:58;59.92;51.27;67.06;;
74470;Laerm;62918;55.706;37.816;2023-03-17T01:28:28;52.50;48.77;58.78;;
74470;Laerm;62918;55.706;37.816;2023-03-17T01:28:59;50.50;47.64;54.48;;
74470;Laerm;62918;55.706;37.816;2023-03-17T01:29:30;50.13;46.92;53.07;;
74470;Laerm;62918;55.706;37.816;2023-03-17T01:30:02;55.17;48.65;60.15;;
74470;Laerm;62918;55.706;37.816;2023-03-17T01:30:36;52.39;47.95;59.21;;
74470;Laerm;62918;55.706;37.816;2023-03-17T01:31:07;53.22;49.03;60.81;;
74470;Laerm;62918;55.706;37.816;2023-03-17T01:31:38;51.30;48.97;54.38;;
74470;Laerm;62918;55.706;37.816;2023-03-17T01:32:09;51.45;48.59;54.43;;
74470;Laerm;62918;55.706;37.816;2023-03-17T01:32:40;53.89;49.14;59.19;;
74470;Laerm;62918;55.706;37.816;2023-03-17T01:33:11;62.28;49.44;71.16;;
74470;Laerm;62918;55.706;37.816;2023-03-17T01:33:42;60.53;55.84;65.51;;
74470;Laerm;62918;55.706;37.816;2023-03-17T01:34:12;61.07;48.69;70.27;;
74470;Laerm;62918;55.706;37.816;2023-03-17T01:34:43;54.41;49.99;59.36;;
74470;Laerm;62918;55.706;37.816;2023-03-17T01:35:14;56.18;49.71;62.17;;
74470;Laerm;62918;55.706;37.816;2023-03-17T01:35:45;53.82;47.95;68.56;;
74470;Laerm;62918;55.706;37.816;2023-03-17T01:36:15;56.76;49.92;63.74;;
74470;Laerm;62918;55.706;37.816;2023-03-17T01:36:47;58.40;50.09;66.66;;
74470;Laerm;62918;55.706;37.816;2023-03-17T01:37:17;58.83;50.62;68.45;;
74470;Laerm;62918;55.706;37.816;2023-03-17T01:37:48;54.71;50.87;59.66;;
74470;Laerm;62918;55.706;37.816;2023-03-17T01:38:19;57.79;50.07;64.67;;
74470;Laerm;62918;55.706;37.816;2023-03-17T01:38:50;58.47;50.96;64.70;;
74470;Laerm;62918;55.706;37.816;2023-03-17T01:39:21;53.40;50.18;57.34;;
74470;Laerm;62918;55.706;37.816;2023-03-17T01:39:52;55.54;51.10;60.53;;
74470;Laerm;62918;55.706;37.816;2023-03-17T01:40:26;53.50;49.36;64.92;;
74470;Laerm;62918;55.706;37.816;2023-03-17T01:40:56;53.41;50.10;59.88;;
74470;Laerm;62918;55.706;37.816;2023-03-17T01:41:27;61.06;54.60;69.48;;
74470;Laerm;62918;55.706;37.816;2023-03-17T01:41:58;57.71;49.73;66.40;;
74470;Laerm;62918;55.706;37.816;2023-03-17T01:42:30;52.51;48.83;56.72;;
74470;Laerm;62918;55.706;37.816;2023-03-17T01:43:23;56.53;51.12;63.58;;
74470;Laerm;62918;55.706;37.816;2023-03-17T01:43:53;57.79;54.08;66.47;;
74470;Laerm;62918;55.706;37.816;2023-03-17T01:44:24;57.66;52.11;62.14;;
74470;Laerm;62918;55.706;37.816;2023-03-17T01:44:59;57.02;51.84;64.89;;
74470;Laerm;62918;55.706;37.816;2023-03-17T01:46:38;51.87;48.61;55.90;;
74470;Laerm;62918;55.706;37.816;2023-03-17T01:47:09;51.23;48.26;56.80;;
74470;Laerm;62918;55.706;37.816;2023-03-17T01:47:40;57.15;49.64;64.05;;
74470;Laerm;62918;55.706;37.816;2023-03-17T01:48:10;61.68;52.53;69.03;;
74470;Laerm;62918;55.706;37.816;2023-03-17T01:48:46;59.17;51.37;68.64;;
74470;Laerm;62918;55.706;37.816;2023-03-17T01:49:26;52.24;48.55;55.51;;
74470;Laerm;62918;55.706;37.816;2023-03-17T01:50:03;52.53;49.62;56.08;;
74470;Laerm;62918;55.706;37.816;2023-03-17T01:50:35;52.02;49.70;54.98;;
74470;Laerm;62918;55.706;37.816;2023-03-17T01:51:08;53.21;49.88;64.17;;
74470;Laerm;62918;55.706;37.816;2023-03-17T01:52:00;57.12;48.66;63.51;;
74470;Laerm;62918;55.706;37.816;2023-03-17T01:52:36;63.25;54.56;69.50;;
74470;Laerm;62918;55.706;37.816;2023-03-17T01:53:08;52.90;49.32;56.49;;
74470;Laerm;62918;55.706;37.816;2023-03-17T01:53:38;59.06;49.78;64.50;;
74470;Laerm;62918;55.706;37.816;2023-03-17T01:55:08;55.03;48.85;70.95;;
74470;Laerm;62918;55.706;37.816;2023-03-17T01:55:42;57.06;49.94;69.60;;
74470;Laerm;62918;55.706;37.816;2023-03-17T01:56:15;61.95;53.86;74.18;;
74470;Laerm;62918;55.706;37.816;2023-03-17T01:56:48;59.90;51.19;67.71;;
74470;Laerm;62918;55.706;37.816;2023-03-17T01:57:34;60.12;53.12;69.06;;
74470;Laerm;62918;55.706;37.816;2023-03-17T01:58:06;56.87;50.84;62.21;;
74470;Laerm;62918;55.706;37.816;2023-03-17T01:58:38;56.76;49.61;62.21;;
74470;Laerm;62918;55.706;37.816;2023-03-17T01:59:12;53.21;48.99;60.94;;
74470;Laerm;62918;55.706;37.816;2023-03-17T02:00:41;51.95;48.67;54.90;;
74470;Laerm;62918;55.706;37.816;2023-03-17T02:01:13;53.36;48.95;59.31;;
74470;Laerm;62918;55.706;37.816;2023-03-17T02:01:46;53.52;50.47;58.56;;
74470;Laerm;62918;55.706;37.816;2023-03-17T02:02:30;56.79;51.43;68.80;;
74470;Laerm;62918;55.706;37.816;2023-03-17T02:03:01;55.36;50.01;61.79;;
74470;Laerm;62918;55.706;37.816;2023-03-17T02:03:33;54.06;49.72;63.39;;
74470;Laerm;62918;55.706;37.816;2023-03-17T02:04:04;58.51;49.93;64.53;;
74470;Laerm;62918;55.706;37.816;2023-03-17T02:04:37;55.53;51.80;59.94;;
74470;Laerm;62918;55.706;37.816;2023-03-17T02:05:11;55.59;51.76;61.69;;
74470;Laerm;62918;55.706;37.816;2023-03-17T02:05:42;57.72;52.06;62.95;;
74470;Laerm;62918;55.706;37.816;2023-03-17T02:06:13;61.31;54.44;66.19;;
74470;Laerm;62918;55.706;37.816;2023-03-17T02:06:44;58.03;52.13;67.08;;
74470;Laerm;62918;55.706;37.816;2023-03-17T02:07:18;62.79;53.15;79.32;;
74470;Laerm;62918;55.706;37.816;2023-03-17T02:07:50;61.25;54.55;72.02;;
74470;Laerm;62918;55.706;37.816;2023-03-17T02:08:21;54.37;50.57;60.63;;
74470;Laerm;62918;55.706;37.816;2023-03-17T02:08:52;55.42;50.92;64.23;;
74470;Laerm;62918;55.706;37.816;2023-03-17T02:09:23;60.06;54.06;64.15;;
74470;Laerm;62918;55.706;37.816;2023-03-17T02:09:54;65.51;55.30;75.56;;
74470;Laerm;62918;55.706;37.816;2023-03-17T02:10:26;55.84;51.68;60.18;;
74470;Laerm;62918;55.706;37.816;2023-03-17T02:10:58;54.05;50.50;68.72;;
74470;Laerm;62918;55.706;37.816;2023-03-17T02:11:32;54.76;49.98;64.11;;
74470;Laerm;62918;55.706;37.816;2023-03-17T02:12:03;57.37;53.10;64.68;;
74470;Laerm;62918;55.706;37.816;2023-03-17T02:12:35;56.00;51.44;62.70;;
74470;Laerm;62918;55.706;37.816;2023-03-17T02:13:07;64.04;58.76;68.33;;
74470;Laerm;62918;55.706;37.816;2023-03-17T02:13:39;60.60;55.03;65.10;;
74470;Laerm;62918;55.706;37.816;2023-03-17T02:14:11;58.35;54.21;66.92;;
74470;Laerm;62918;55.706;37.816;2023-03-17T02:14:41;60.08;54.86;67.33;;
74470;Laerm;62918;55.706;37.816;2023-03-17T02:15:13;56.57;51.69;66.44;;
74470;Laerm;62918;55.706;37.816;2023-03-17T02:15:47;60.28;53.72;66.78;;
74470;Laerm;62918;55.706;37.816;2023-03-17T02:16:17;59.84;53.39;67.51;;
74470;Laerm;62918;55.706;37.816;2023-03-17T02:16:48;59.45;53.35;65.27;;
74470;Laerm;62918;55.706;37.816;2023-03-17T02:17:20;58.76;55.66;63.61;;
74470;Laerm;62918;55.706;37.816;2023-03-17T02:17:52;60.07;53.44;69.69;;
74470;Laerm;62918;55.706;37.816;2023-03-17T02:18:23;59.22;53.82;65.90;;
74470;Laerm;62918;55.706;37.816;2023-03-17T02:18:54;58.92;53.59;65.45;;
74470;Laerm;62918;55.706;37.816;2023-03-17T02:19:26;60.51;52.84;68.43;;
74470;Laerm;62918;55.706;37.816;2023-03-17T02:20:12;60.03;55.60;66.16;;
74470;Laerm;62918;55.706;37.816;2023-03-17T02:21:23;59.33;53.87;63.01;;
74470;Laerm;62918;55.706;37.816;2023-03-17T02:21:42;57.02;52.43;64.88;;
74470;Laerm;62918;55.706;37.816;2023-03-17T02:22:15;56.44;52.36;64.31;;
74470;Laerm;62918;55.706;37.816;2023-03-17T02:22:49;58.57;52.33;63.64;;
74470;Laerm;62918;55.706;37.816;2023-03-17T02:23:22;54.68;51.19;58.87;;
74470;Laerm;62918;55.706;37.816;2023-03-17T02:23:53;56.96;52.74;62.63;;
74470;Laerm;62918;55.706;37.816;2023-03-17T02:24:37;61.65;53.82;68.66;;
74470;Laerm;62918;55.706;37.816;2023-03-17T02:25:09;57.59;53.21;64.15;;
74470;Laerm;62918;55.706;37.816;2023-03-17T02:25:40;56.18;52.33;61.99;;
74470;Laerm;62918;55.706;37.816;2023-03-17T02:26:13;59.41;56.44;63.47;;
74470;Laerm;62918;55.706;37.816;2023-03-17T02:26:43;56.34;52.73;61.44;;
74470;Laerm;62918;55.706;37.816;2023-03-17T02:27:23;56.42;52.67;62.86;;
74470;Laerm;62918;55.706;37.816;2023-03-17T02:27:58;57.46;52.86;64.71;;
74470;Laerm;62918;55.706;37.816;2023-03-17T02:28:30;60.17;52.45;64.16;;
74470;Laerm;62918;55.706;37.816;2023-03-17T02:29:02;59.47;56.39;63.42;;
74470;Laerm;62918;55.706;37.816;2023-03-17T02:29:34;58.65;53.97;62.80;;
74470;Laerm;62918;55.706;37.816;2023-03-17T02:30:08;55.53;52.83;64.67;;
74470;Laerm;62918;55.706;37.816;2023-03-17T02:30:39;57.91;52.83;64.43;;
74470;Laerm;62918;55.706;37.816;2023-03-17T02:31:11;60.56;54.99;67.43;;
74470;Laerm;62918;55.706;37.816;2023-03-17T02:31:42;58.62;53.06;64.89;;
74470;Laerm;62918;55.706;37.816;2023-03-17T02:32:15;62.98;54.22;69.58;;
74470;Laerm;62918;55.706;37.816;2023-03-17T02:32:47;61.74;55.68;72.17;;
74470;Laerm;62918;55.706;37.816;2023-03-17T02:33:17;60.23;54.47;64.79;;
74470;Laerm;62918;55.706;37.816;2023-03-17T02:33:48;61.18;55.08;66.59;;
74470;Laerm;62918;55.706;37.816;2023-03-17T02:34:18;57.92;52.41;63.17;;
74470;Laerm;62918;55.706;37.816;2023-03-17T02:34:49;58.39;54.16;63.45;;
74470;Laerm;62918;55.706;37.816;2023-03-17T02:35:43;61.73;55.19;66.51;;
74470;Laerm;62918;55.706;37.816;2023-03-17T02:36:14;63.56;56.85;70.00;;
74470;Laerm;62918;55.706;37.816;2023-03-17T02:36:44;65.53;59.11;70.06;;
74470;Laerm;62918;55.706;37.816;2023-03-17T02:37:17;64.97;57.65;72.21;;
74470;Laerm;62918;55.706;37.816;2023-03-17T02:37:48;59.69;55.36;64.53;;
74470;Laerm;62918;55.706;37.816;2023-03-17T02:38:19;58.56;52.27;62.95;;
74470;Laerm;62918;55.706;37.816;2023-03-17T02:38:51;58.84;54.30;63.54;;
74470;Laerm;62918;55.706;37.816;2023-03-17T02:39:22;58.20;55.11;62.05;;
74470;Laerm;62918;55.706;37.816;2023-03-17T02:39:53;61.48;57.14;66.43;;
74470;Laerm;62918;55.706;37.816;2023-03-17T02:40:23;58.98;54.17;63.68;;
74470;Laerm;62918;55.706;37.816;2023-03-17T02:40:54;56.40;52.14;60.90;;
74470;Laerm;62918;55.706;37.816;2023-03-17T02:41:25;55.26;51.61;58.62;;
74470;Laerm;62918;55.706;37.816;2023-03-17T02:41:55;64.14;54.85;71.74;;
74470;Laerm;62918;55.706;37.816;2023-03-17T02:42:27;60.88;55.36;68.77;;
74470;Laerm;62918;55.706;37.816;2023-03-17T02:42:58;57.83;52.91;61.83;;
74470;Laerm;62918;55.706;37.816;2023-03-17T02:43:28;60.27;53.61;66.27;;
74470;Laerm;62918;55.706;37.816;2023-03-17T02:43:59;58.35;54.09;65.54;;
74470;Laerm;62918;55.706;37.816;2023-03-17T02:44:30;59.56;54.10;65.58;;
74470;Laerm;62918;55.706;37.816;2023-03-17T02:45:01;65.45;58.38;70.61;;
74470;Laerm;62918;55.706;37.816;2023-03-17T02:45:33;60.11;54.01;66.57;;
74470;Laerm;62918;55.706;37.816;2023-03-17T02:46:04;60.16;53.73;66.65;;
74470;Laerm;62918;55.706;37.816;2023-03-17T02:46:34;58.49;54.26;63.64;;
74470;Laerm;62918;55.706;37.816;2023-03-17T02:47:06;63.54;54.20;69.94;;
74470;Laerm;62918;55.706;37.816;2023-03-17T02:47:38;63.94;57.66;71.80;;
74470;Laerm;62918;55.706;37.816;2023-03-17T02:48:09;59.74;53.97;65.86;;
74470;Laerm;62918;55.706;37.816;2023-03-17T02:48:40;61.36;54.05;67.47;;
74470;Laerm;62918;55.706;37.816;2023-03-17T02:49:11;60.54;55.25;65.51;;
74470;Laerm;62918;55.706;37.816;2023-03-17T02:49:43;58.64;51.33;64.10;;
74470;Laerm;62918;55.706;37.816;2023-03-17T02:50:20;67.94;52.78;75.92;;
74470;Laerm;62918;55.706;37.816;2023-03-17T02:50:52;57.38;52.12;62.96;;
74470;Laerm;62918;55.706;37.816;2023-03-17T02:51:23;58.80;52.69;63.12;;
74470;Laerm;62918;55.706;37.816;2023-03-17T02:51:53;61.66;54.91;69.62;;
74470;Laerm;62918;55.706;37.816;2023-03-17T02:52:24;63.33;55.65;69.96;;
74470;Laerm;62918;55.706;37.816;2023-03-17T02:52:55;59.87;54.79;64.90;;
74470;Laerm;62918;55.706;37.816;2023-03-17T02:53:26;58.99;54.80;65.08;;
74470;Laerm;62918;55.706;37.816;2023-03-17T02:53:56;61.40;56.44;67.90;;
74470;Laerm;62918;55.706;37.816;2023-03-17T02:54:27;67.36;58.40;76.20;;
74470;Laerm;62918;55.706;37.816;2023-03-17T02:54:58;60.80;54.75;64.80;;
74470;Laerm;62918;55.706;37.816;2023-03-17T02:55:28;60.30;57.12;64.66;;
74470;Laerm;62918;55.706;37.816;2023-03-17T02:55:59;57.54;54.94;62.70;;
74470;Laerm;62918;55.706;37.816;2023-03-17T02:56:29;60.40;55.54;64.34;;
74470;Laerm;62918;55.706;37.816;2023-03-17T02:57:00;61.83;55.61;67.78;;
74470;Laerm;62918;55.706;37.816;2023-03-17T02:57:31;66.44;55.28;72.43;;
74470;Laerm;62918;55.706;37.816;2023-03-17T02:58:01;62.95;55.53;68.41;;
74470;Laerm;62918;55.706;37.816;2023-03-17T02:58:32;57.95;53.43;61.12;;
74470;Laerm;62918;55.706;37.816;2023-03-17T02:59:04;59.45;55.66;63.83;;
74470;Laerm;62918;55.706;37.816;2023-03-17T02:59:35;62.80;57.51;67.94;;
74470;Laerm;62918;55.706;37.816;2023-03-17T03:00:06;59.11;54.88;66.96;;
74470;Laerm;62918;55.706;37.816;2023-03-17T03:00:39;63.50;54.31;70.70;;
74470;Laerm;62918;55.706;37.816;2023-03-17T03:01:10;64.94;57.81;69.83;;
74470;Laerm;62918;55.706;37.816;2023-03-17T03:01:42;65.85;58.55;72.26;;